Time;durP1;ratioP1;P1;durP2;ratioP2;P2;SDS_P1;SDS_P2;PMS_P1;PMS_P2;Temp;Humidity;BMP_temperature;BMP_pressure;BME280_temperature;BME280_humidity;BME280_pressure;Samples;Min_cycle;Max_cycle;Signal;HPM_P1;HPM_P2
2022/07/06 00:02:09;;;;;;;2.35;0.70;;;;;19.10;102429.00;;;;5042895;28;20576;-80
2022/07/06 00:04:36;;;;;;;1.00;0.50;;;;;19.10;102432.00;;;;5032736;28;20196;-80
2022/07/06 00:07:04;;;;;;;1.75;0.88;;;;;19.10;102427.00;;;;5032157;28;20196;-80
2022/07/06 00:09:31;;;;;;;1.10;0.70;;;;;19.00;102431.00;;;;5036828;28;20197;-80
2022/07/06 00:11:58;;;;;;;1.33;0.60;;;;;19.00;102436.00;;;;5032867;28;20200;-80
2022/07/06 00:14:26;;;;;;;0.65;0.50;;;;;19.00;102431.00;;;;5035086;28;20576;-80
2022/07/06 00:16:54;;;;;;;3.63;1.08;;;;;19.00;102424.00;;;;5048219;28;20227;-80
2022/07/06 00:19:22;;;;;;;1.60;0.98;;;;;19.00;102429.00;;;;5029566;28;20196;-80
2022/07/06 00:21:49;;;;;;;1.10;0.50;;;;;18.90;102425.00;;;;5031406;28;20654;-80
2022/07/06 00:24:17;;;;;;;0.98;0.57;;;;;18.90;102431.00;;;;5029577;28;20210;-80
2022/07/06 00:26:45;;;;;;;1.02;0.60;;;;;18.90;102427.00;;;;5031539;28;20232;-80
2022/07/06 00:29:12;;;;;;;0.60;0.43;;;;;18.90;102424.00;;;;5031446;28;20210;-80
2022/07/06 00:31:39;;;;;;;1.77;0.50;;;;;18.90;102416.00;;;;5045934;28;20207;-80
2022/07/06 00:34:08;;;;;;;0.77;0.52;;;;;18.80;102424.00;;;;5033628;28;20196;-80
2022/07/06 00:36:35;;;;;;;1.30;0.80;;;;;18.80;102427.00;;;;5030822;28;20593;-80
2022/07/06 00:39:03;;;;;;;0.80;0.55;;;;;18.80;102420.00;;;;5030585;28;20682;-80
2022/07/06 00:41:30;;;;;;;1.02;0.68;;;;;18.80;102418.00;;;;5040833;28;20208;-80
2022/07/06 00:43:58;;;;;;;2.45;0.80;;;;;18.70;102426.00;;;;5031473;28;20196;-80
2022/07/06 00:46:29;;;;;;;1.05;0.52;;;;;18.70;102425.00;;;;5030332;28;20211;-80
2022/07/06 00:48:56;;;;;;;0.95;0.55;;;;;18.70;102414.00;;;;5029175;28;20224;-80
2022/07/06 00:51:29;;;;;;;1.15;0.65;;;;;18.60;102415.00;;;;5033319;28;20204;-79
2022/07/06 00:53:59;;;;;;;1.20;0.70;;;;;18.60;102418.00;;;;5046043;28;20285;-80
2022/07/06 00:56:29;;;;;;;1.45;0.50;;;;;18.60;102416.00;;;;5030446;28;20208;-80
2022/07/06 00:58:56;;;;;;;0.50;0.40;;;;;18.60;102419.00;;;;5044845;28;20222;-80
2022/07/06 01:01:24;;;;;;;1.55;0.90;;;;;18.60;102412.00;;;;5029903;28;20200;-80
2022/07/06 01:03:51;;;;;;;1.13;0.70;;;;;18.60;102413.00;;;;5040621;28;20200;-80
2022/07/06 01:06:18;;;;;;;0.93;0.55;;;;;18.50;102419.00;;;;5046624;28;20202;-80
2022/07/06 01:08:48;;;;;;;1.75;0.63;;;;;18.50;102419.00;;;;5033065;28;20901;-81
2022/07/06 01:11:16;;;;;;;0.90;0.60;;;;;18.50;102422.00;;;;5031005;28;20208;-80
2022/07/06 01:13:44;;;;;;;1.10;0.50;;;;;18.50;102423.00;;;;5036411;28;20200;-80
2022/07/06 01:16:12;;;;;;;2.35;0.60;;;;;18.50;102420.00;;;;5045230;28;20208;-80
2022/07/06 01:18:40;;;;;;;1.63;0.57;;;;;18.40;102421.00;;;;5035043;28;20219;-81
2022/07/06 01:21:12;;;;;;;3.05;0.90;;;;;18.40;102421.00;;;;5037314;28;20192;-80
2022/07/06 01:23:43;;;;;;;1.67;0.60;;;;;18.40;102433.00;;;;5043184;28;20285;-81
2022/07/06 01:26:15;;;;;;;2.10;0.60;;;;;18.40;102425.00;;;;5034498;28;20211;-81
2022/07/06 01:28:43;;;;;;;1.55;0.60;;;;;18.40;102424.00;;;;5031036;28;20211;-81
2022/07/06 01:31:16;;;;;;;0.90;0.47;;;;;18.30;102425.00;;;;5030641;28;20290;-80
2022/07/06 01:33:44;;;;;;;1.13;0.60;;;;;18.40;102419.00;;;;5031123;28;20625;-80
2022/07/06 01:36:13;;;;;;;3.63;0.80;;;;;18.30;102418.00;;;;5033661;28;20207;-80
2022/07/06 01:38:47;;;;;;;1.48;0.50;;;;;18.30;102413.00;;;;5042986;28;20761;-80
2022/07/06 01:41:15;;;;;;;0.80;0.60;;;;;18.30;102415.00;;;;5030042;28;20199;-81
2022/07/06 01:43:42;;;;;;;1.73;0.57;;;;;18.30;102409.00;;;;5037441;28;20737;-80
2022/07/06 01:46:10;;;;;;;1.60;0.60;;;;;18.30;102412.00;;;;5044842;28;20568;-80
2022/07/06 01:48:37;;;;;;;1.98;0.70;;;;;18.30;102410.00;;;;5033976;28;20192;-80
2022/07/06 01:51:05;;;;;;;1.80;0.55;;;;;18.30;102412.00;;;;5037370;28;20208;-80
2022/07/06 01:53:34;;;;;;;0.85;0.47;;;;;18.30;102416.00;;;;5029949;28;20280;-80
2022/07/06 01:56:01;;;;;;;1.27;0.47;;;;;18.30;102404.00;;;;5041094;28;20713;-80
2022/07/06 01:58:29;;;;;;;1.05;0.60;;;;;18.30;102406.00;;;;5033561;28;20250;-80
2022/07/06 02:00:56;;;;;;;0.80;0.60;;;;;18.30;102408.00;;;;5039269;28;20196;-80
2022/07/06 02:03:23;;;;;;;2.40;0.65;;;;;18.30;102403.00;;;;5037840;28;20192;-81
2022/07/06 02:05:51;;;;;;;2.40;0.57;;;;;18.20;102401.00;;;;5029784;28;20196;-80
2022/07/06 02:08:18;;;;;;;1.40;0.77;;;;;18.20;102408.00;;;;5034293;28;20200;-78
2022/07/06 02:10:48;;;;;;;1.38;0.60;;;;;18.20;102405.00;;;;5029664;28;20196;-78
2022/07/06 02:13:15;;;;;;;1.20;0.60;;;;;18.30;102411.00;;;;5037335;28;20207;-78
2022/07/06 02:15:42;;;;;;;1.55;0.63;;;;;18.30;102402.00;;;;5037982;28;20199;-79
2022/07/06 02:18:10;;;;;;;2.35;0.90;;;;;18.30;102409.00;;;;5031694;28;20231;-78
2022/07/06 02:20:37;;;;;;;2.20;0.80;;;;;18.30;102404.00;;;;5035255;28;20203;-79
2022/07/06 02:23:05;;;;;;;1.67;0.82;;;;;18.30;102409.00;;;;5041711;28;20200;-78
2022/07/06 02:25:32;;;;;;;1.58;0.65;;;;;18.30;102409.00;;;;5035324;28;20196;-78
2022/07/06 02:28:01;;;;;;;0.90;0.50;;;;;18.30;102403.00;;;;5029355;28;20733;-79
2022/07/06 02:30:28;;;;;;;2.17;0.85;;;;;18.30;102398.00;;;;5037905;28;20199;-79
2022/07/06 02:32:55;;;;;;;3.53;0.77;;;;;18.30;102405.00;;;;5042232;28;20199;-78
2022/07/06 02:35:22;;;;;;;1.38;0.68;;;;;18.30;102414.00;;;;5037347;28;20216;-79
2022/07/06 02:37:50;;;;;;;1.60;0.70;;;;;18.30;102411.00;;;;5034118;28;20231;-78
2022/07/06 02:40:17;;;;;;;3.17;0.70;;;;;18.30;102411.00;;;;5029756;28;20192;-79
2022/07/06 02:42:46;;;;;;;1.02;0.60;;;;;18.40;102409.00;;;;5042308;28;21029;-79
2022/07/06 02:45:14;;;;;;;3.03;0.60;;;;;18.40;102407.00;;;;5046892;28;20200;-79
2022/07/06 02:47:42;;;;;;;1.17;0.60;;;;;18.40;102408.00;;;;5043936;28;20227;-79
2022/07/06 02:50:09;;;;;;;2.42;1.27;;;;;18.40;102404.00;;;;5036395;28;20202;-79
2022/07/06 02:52:36;;;;;;;1.50;0.93;;;;;18.50;102418.00;;;;5032266;28;20193;-79
2022/07/06 02:55:04;;;;;;;1.98;0.90;;;;;18.50;102417.00;;;;5035545;28;20227;-79
2022/07/06 02:57:31;;;;;;;1.88;0.73;;;;;18.50;102419.00;;;;5038204;28;20231;-79
2022/07/06 02:59:59;;;;;;;3.80;0.60;;;;;18.50;102412.00;;;;5031547;28;20581;-79
2022/07/06 03:02:27;;;;;;;1.73;0.63;;;;;18.60;102413.00;;;;5040578;28;20214;-79
2022/07/06 03:04:56;;;;;;;1.55;0.90;;;;;18.60;102420.00;;;;5033694;28;20250;-79
2022/07/06 03:07:24;;;;;;;1.33;1.08;;;;;18.60;102415.00;;;;5035138;28;20219;-79
2022/07/06 03:09:51;;;;;;;2.22;1.33;;;;;18.70;102419.00;;;;5032007;28;20204;-79
2022/07/06 03:12:18;;;;;;;2.70;0.85;;;;;18.70;102420.00;;;;5047167;28;20204;-79
2022/07/06 03:14:46;;;;;;;1.20;0.63;;;;;18.70;102423.00;;;;5027263;28;20204;-79
2022/07/06 03:17:13;;;;;;;1.17;0.60;;;;;18.70;102429.00;;;;5031488;28;20219;-79
2022/07/06 03:19:42;;;;;;;2.20;0.70;;;;;18.70;102429.00;;;;5029026;28;20196;-79
2022/07/06 03:22:09;;;;;;;1.50;0.73;;;;;18.80;102430.00;;;;5038895;28;20188;-79
2022/07/06 03:24:36;;;;;;;0.80;0.65;;;;;18.80;102436.00;;;;5035170;28;20650;-79
2022/07/06 03:27:04;;;;;;;0.70;0.50;;;;;18.80;102432.00;;;;5037747;28;20211;-79
2022/07/06 03:29:32;;;;;;;1.23;0.77;;;;;18.90;102429.00;;;;5037986;28;20200;-79
2022/07/06 03:31:59;;;;;;;1.20;0.63;;;;;18.90;102436.00;;;;5042230;28;20654;-79
2022/07/06 03:34:26;;;;;;;0.98;0.80;;;;;18.90;102421.00;;;;5036835;28;20195;-80
2022/07/06 03:36:55;;;;;;;1.02;0.63;;;;;18.90;102431.00;;;;5031985;28;20212;-80
2022/07/06 03:39:22;;;;;;;1.00;0.40;;;;;19.00;102424.00;;;;5042143;28;20215;-80
2022/07/06 03:41:49;;;;;;;1.50;0.68;;;;;19.00;102429.00;;;;5033625;28;20199;-80
2022/07/06 03:44:17;;;;;;;0.98;0.52;;;;;19.00;102429.00;;;;5027853;28;20203;-80
2022/07/06 03:46:44;;;;;;;0.88;0.40;;;;;19.10;102426.00;;;;5030428;28;20207;-81
2022/07/06 03:49:11;;;;;;;1.08;0.50;;;;;19.10;102437.00;;;;5040615;28;20200;-80
2022/07/06 03:51:40;;;;;;;3.42;0.70;;;;;19.10;102430.00;;;;5032916;28;20215;-81
2022/07/06 03:54:08;;;;;;;1.25;0.55;;;;;19.10;102432.00;;;;5035625;28;20228;-80
2022/07/06 03:56:38;;;;;;;0.75;0.40;;;;;19.10;102426.00;;;;5029373;28;20211;-80
2022/07/06 03:59:06;;;;;;;0.73;0.50;;;;;19.20;102419.00;;;;5030180;28;20224;-80
2022/07/06 04:01:33;;;;;;;1.02;0.50;;;;;19.20;102425.00;;;;5028132;28;20203;-80
2022/07/06 04:04:00;;;;;;;1.50;0.68;;;;;19.20;102421.00;;;;5028492;28;20584;-80
2022/07/06 04:06:28;;;;;;;1.48;0.70;;;;;19.20;102415.00;;;;5036055;28;20202;-80
2022/07/06 04:08:55;;;;;;;1.25;0.95;;;;;19.20;102420.00;;;;5040368;28;20192;-80
2022/07/06 04:11:24;;;;;;;1.77;0.60;;;;;19.20;102417.00;;;;5027101;28;20200;-80
2022/07/06 04:13:51;;;;;;;1.20;0.60;;;;;19.30;102429.00;;;;5028435;28;20192;-80
2022/07/06 04:16:18;;;;;;;1.77;0.70;;;;;19.30;102417.00;;;;5030106;28;20199;-80
2022/07/06 04:18:46;;;;;;;2.05;0.80;;;;;19.30;102421.00;;;;5041965;28;20227;-80
2022/07/06 04:21:13;;;;;;;2.33;1.00;;;;;19.30;102423.00;;;;5034111;28;20211;-80
2022/07/06 04:23:40;;;;;;;1.73;0.70;;;;;19.30;102414.00;;;;5029219;28;20864;-80
2022/07/06 04:26:07;;;;;;;2.30;0.90;;;;;19.40;102421.00;;;;5038024;28;20196;-80
2022/07/06 04:28:36;;;;;;;3.05;1.00;;;;;19.40;102415.00;;;;5031641;28;20203;-80
2022/07/06 04:31:03;;;;;;;1.50;0.80;;;;;19.40;102419.00;;;;5035987;28;21070;-81
2022/07/06 04:33:31;;;;;;;1.58;0.68;;;;;19.40;102418.00;;;;5046839;28;20564;-80
2022/07/06 04:35:58;;;;;;;2.40;1.23;;;;;19.40;102422.00;;;;5035778;28;20223;-80
2022/07/06 04:38:25;;;;;;;1.30;0.80;;;;;19.50;102418.00;;;;5030831;28;20223;-80
2022/07/06 04:40:53;;;;;;;3.10;0.50;;;;;19.50;102420.00;;;;5039305;28;20200;-80
2022/07/06 04:43:20;;;;;;;1.50;0.63;;;;;19.50;102417.00;;;;5035989;28;20192;-80
2022/07/06 04:45:49;;;;;;;0.75;0.60;;;;;19.50;102411.00;;;;5039382;28;20203;-80
2022/07/06 04:48:16;;;;;;;3.70;0.60;;;;;19.60;102417.00;;;;5034904;28;20199;-80
2022/07/06 04:50:43;;;;;;;2.70;0.80;;;;;19.60;102411.00;;;;5045366;28;20207;-80
2022/07/06 04:53:11;;;;;;;3.63;0.70;;;;;19.60;102413.00;;;;5032316;28;20212;-80
2022/07/06 04:55:38;;;;;;;1.00;0.60;;;;;19.70;102416.00;;;;5037384;28;20228;-79
2022/07/06 04:58:06;;;;;;;1.92;0.70;;;;;19.70;102419.00;;;;5037386;28;20220;-80
2022/07/06 05:00:33;;;;;;;1.15;0.60;;;;;19.70;102413.00;;;;5030733;28;20196;-80
2022/07/06 05:03:02;;;;;;;0.88;0.60;;;;;19.80;102414.00;;;;5037140;28;20207;-81
2022/07/06 05:05:29;;;;;;;1.00;0.50;;;;;19.80;102426.00;;;;5033000;28;20203;-79
2022/07/06 05:07:56;;;;;;;0.90;0.60;;;;;19.80;102417.00;;;;5030254;28;20195;-80
2022/07/06 05:10:24;;;;;;;1.27;0.40;;;;;19.90;102423.00;;;;5033916;28;20200;-80
2022/07/06 05:12:51;;;;;;;1.60;0.60;;;;;19.90;102427.00;;;;5033010;28;20200;-80
2022/07/06 05:15:18;;;;;;;3.33;0.63;;;;;20.00;102429.00;;;;5043302;28;20187;-80
2022/07/06 05:17:46;;;;;;;1.30;0.70;;;;;20.00;102432.00;;;;5030151;28;20215;-80
2022/07/06 05:20:14;;;;;;;2.63;0.52;;;;;20.00;102434.00;;;;5031040;28;20223;-80
2022/07/06 05:22:42;;;;;;;1.17;0.60;;;;;20.10;102427.00;;;;5036828;28;20196;-80
2022/07/06 05:25:09;;;;;;;3.58;0.80;;;;;20.10;102436.00;;;;5037393;28;20192;-81
2022/07/06 05:27:37;;;;;;;0.85;0.52;;;;;20.10;102436.00;;;;5037319;28;20279;-81
2022/07/06 05:30:05;;;;;;;0.60;0.40;;;;;20.20;102424.00;;;;5043068;28;20214;-80
2022/07/06 05:32:33;;;;;;;1.02;0.47;;;;;20.20;102430.00;;;;5032821;28;20199;-82
2022/07/06 05:35:00;;;;;;;1.30;0.35;;;;;20.30;102434.00;;;;5043325;28;20216;-81
2022/07/06 05:37:29;;;;;;;1.20;0.60;;;;;20.30;102429.00;;;;5042179;28;20204;-81
2022/07/06 05:39:56;;;;;;;1.08;0.45;;;;;20.40;102440.00;;;;5028392;28;20709;-80
2022/07/06 05:42:23;;;;;;;0.82;0.45;;;;;20.50;102427.00;;;;5028632;28;20200;-80
2022/07/06 05:44:50;;;;;;;0.75;0.40;;;;;20.60;102431.00;;;;5035826;28;21470;-79
2022/07/06 05:50:14;;;;;;;0.90;0.50;;;;;20.70;102439.00;;;;5029554;28;20199;-81
2022/07/06 05:52:45;;;;;;;1.25;0.50;;;;;20.80;102431.00;;;;5032780;28;20188;-77
2022/07/06 05:55:13;;;;;;;0.68;0.50;;;;;20.80;102437.00;;;;5028994;28;20979;-78
2022/07/06 05:57:41;;;;;;;0.82;0.30;;;;;20.90;102439.00;;;;5028994;28;20200;-77
2022/07/06 06:00:09;;;;;;;1.67;0.50;;;;;20.90;102438.00;;;;5036896;28;20222;-78
2022/07/06 06:02:40;;;;;;;1.35;0.70;;;;;21.00;102437.00;;;;5038529;28;20197;-78
2022/07/06 06:05:09;;;;;;;2.30;0.60;;;;;21.00;102439.00;;;;5029213;28;20200;-78
2022/07/06 06:07:36;;;;;;;1.15;0.50;;;;;21.10;102441.00;;;;5044326;28;20192;-78
2022/07/06 06:10:09;;;;;;;1.55;0.60;;;;;21.20;102447.00;;;;5038264;28;20200;-78
2022/07/06 06:12:36;;;;;;;1.45;0.43;;;;;21.30;102453.00;;;;5036398;28;20570;-79
2022/07/06 06:15:05;;;;;;;0.70;0.50;;;;;21.30;102447.00;;;;5027651;28;20204;-78
2022/07/06 06:17:32;;;;;;;1.70;0.50;;;;;21.40;102443.00;;;;5039748;28;20188;-79
2022/07/06 06:20:00;;;;;;;1.40;0.30;;;;;21.40;102446.00;;;;5039181;28;20234;-78
2022/07/06 06:22:27;;;;;;;0.65;0.47;;;;;21.50;102445.00;;;;5028561;28;20204;-78
2022/07/06 06:24:57;;;;;;;2.40;0.47;;;;;21.50;102456.00;;;;5040923;28;20671;-78
2022/07/06 06:27:26;;;;;;;0.60;0.30;;;;;21.60;102457.00;;;;5028356;28;20196;-79
2022/07/06 06:29:53;;;;;;;0.50;0.47;;;;;21.70;102457.00;;;;5028849;28;20192;-79
2022/07/06 06:32:21;;;;;;;1.98;0.60;;;;;21.70;102457.00;;;;5028692;28;20208;-79
2022/07/06 06:34:48;;;;;;;1.08;0.50;;;;;21.80;102461.00;;;;5029056;28;20208;-79
2022/07/06 06:37:15;;;;;;;1.70;0.70;;;;;21.80;102455.00;;;;5035508;28;20188;-79
2022/07/06 06:39:42;;;;;;;1.38;0.30;;;;;21.90;102460.00;;;;5047226;28;20230;-79
2022/07/06 06:42:10;;;;;;;1.60;0.60;;;;;22.00;102462.00;;;;5030843;28;20200;-79
2022/07/06 06:44:38;;;;;;;0.47;0.30;;;;;22.10;102447.00;;;;5039790;28;20200;-78
2022/07/06 06:47:06;;;;;;;2.47;0.50;;;;;22.20;102453.00;;;;5027826;28;20197;-79
2022/07/06 06:49:33;;;;;;;2.50;0.40;;;;;22.20;102451.00;;;;5028132;28;20207;-79
2022/07/06 06:52:00;;;;;;;1.23;0.55;;;;;22.30;102459.00;;;;5028277;28;20188;-78
2022/07/06 06:54:27;;;;;;;3.03;0.20;;;;;22.40;102470.00;;;;5028149;28;20224;-79
2022/07/06 06:56:55;;;;;;;3.28;0.60;;;;;22.50;102470.00;;;;5029953;28;20197;-79
2022/07/06 06:59:23;;;;;;;1.02;0.30;;;;;22.60;102470.00;;;;5048050;28;20235;-79
2022/07/06 07:01:52;;;;;;;1.38;0.30;;;;;22.70;102463.00;;;;5034134;28;20196;-80
2022/07/06 07:04:19;;;;;;;0.85;0.50;;;;;22.80;102464.00;;;;5028016;28;20658;-79
2022/07/06 07:06:46;;;;;;;0.75;0.20;;;;;22.90;102463.00;;;;5028120;28;20670;-80
2022/07/06 07:09:13;;;;;;;0.82;0.32;;;;;23.00;102460.00;;;;5037926;28;20192;-80
2022/07/06 07:11:41;;;;;;;2.40;0.50;;;;;23.10;102465.00;;;;5045742;28;20678;-79
2022/07/06 07:14:08;;;;;;;2.25;0.50;;;;;23.20;102465.00;;;;5029275;28;20204;-80
2022/07/06 07:16:35;;;;;;;1.23;0.20;;;;;23.30;102471.00;;;;5028564;28;20192;-79
2022/07/06 07:19:04;;;;;;;0.20;0.13;;;;;23.40;102466.00;;;;5027234;28;20227;-79
2022/07/06 07:21:31;;;;;;;1.58;0.10;;;;;23.40;102472.00;;;;5028190;28;20204;-80
2022/07/06 07:23:58;;;;;;;2.95;0.30;;;;;23.50;102466.00;;;;5047425;28;20202;-79
2022/07/06 07:26:26;;;;;;;0.45;0.20;;;;;23.50;102467.00;;;;5041674;28;20705;-80
2022/07/06 07:28:53;;;;;;;0.85;0.30;;;;;23.60;102467.00;;;;5027807;28;20655;-80
2022/07/06 07:31:21;;;;;;;0.43;0.20;;;;;23.60;102467.00;;;;5027877;28;20204;-78
2022/07/06 07:33:48;;;;;;;0.20;0.15;;;;;23.70;102464.00;;;;5032673;28;20200;-79
2022/07/06 07:36:17;;;;;;;1.98;0.30;;;;;23.80;102472.00;;;;5035419;28;20223;-79
2022/07/06 07:38:44;;;;;;;2.05;0.32;;;;;23.90;102469.00;;;;5031439;28;20206;-80
2022/07/06 07:41:13;;;;;;;0.88;0.28;;;;;24.00;102467.00;;;;5039254;28;20200;-79
2022/07/06 07:43:41;;;;;;;2.70;0.20;;;;;24.10;102469.00;;;;5034616;28;20215;-79
2022/07/06 07:46:08;;;;;;;1.05;0.45;;;;;24.20;102466.00;;;;5036844;28;20192;-79
2022/07/06 07:48:35;;;;;;;0.45;0.20;;;;;24.30;102472.00;;;;5031852;28;20206;-80
2022/07/06 07:51:03;;;;;;;0.73;0.20;;;;;24.40;102471.00;;;;5027750;28;20204;-79
2022/07/06 07:53:34;;;;;;;0.68;0.30;;;;;24.40;102474.00;;;;5041494;28;20195;-80
2022/07/06 07:56:01;;;;;;;0.57;0.28;;;;;24.40;102473.00;;;;5038463;28;20242;-80
2022/07/06 07:58:29;;;;;;;0.98;0.32;;;;;24.30;102475.00;;;;5030114;28;20195;-79
2022/07/06 08:00:59;;;;;;;1.25;0.50;;;;;24.30;102471.00;;;;5038654;28;20690;-80
2022/07/06 08:03:26;;;;;;;1.55;0.50;;;;;24.30;102470.00;;;;5027270;28;20204;-79
2022/07/06 08:05:54;;;;;;;6.55;0.52;;;;;24.30;102470.00;;;;5031927;28;20566;-81
2022/07/06 08:08:21;;;;;;;1.17;0.20;;;;;24.40;102470.00;;;;5031857;28;20306;-80
2022/07/06 08:10:50;;;;;;;0.73;0.20;;;;;24.30;102477.00;;;;5047939;28;20207;-80
2022/07/06 08:13:17;;;;;;;0.90;0.10;;;;;24.30;102467.00;;;;5051329;28;20206;-80
2022/07/06 08:15:44;;;;;;;0.57;0.10;;;;;24.40;102455.00;;;;5051624;28;20192;-80
2022/07/06 08:18:12;;;;;;;0.93;0.32;;;;;24.40;102456.00;;;;5038452;28;20197;-80
2022/07/06 08:20:39;;;;;;;0.20;0.10;;;;;24.50;102459.00;;;;5030560;28;20986;-81
2022/07/06 08:23:06;;;;;;;1.27;0.28;;;;;24.70;102460.00;;;;5040802;28;20203;-80
2022/07/06 08:25:34;;;;;;;1.38;0.30;;;;;24.80;102457.00;;;;5044457;28;20203;-80
2022/07/06 08:28:02;;;;;;;8.38;0.52;;;;;25.00;102458.00;;;;5032603;28;20201;-80
2022/07/06 08:30:31;;;;;;;0.73;0.20;;;;;25.10;102461.00;;;;5030941;28;20597;-80
2022/07/06 08:32:58;;;;;;;2.65;0.38;;;;;25.30;102457.00;;;;5041058;28;20578;-81
2022/07/06 08:35:25;;;;;;;2.13;0.25;;;;;25.40;102455.00;;;;5047464;28;20226;-78
2022/07/06 08:37:53;;;;;;;0.77;0.20;;;;;25.50;102456.00;;;;5037118;28;20596;-80
2022/07/06 08:40:20;;;;;;;0.52;0.20;;;;;25.70;102454.00;;;;5036059;28;20224;-78
2022/07/06 08:42:53;;;;;;;0.80;0.25;;;;;25.70;102462.00;;;;5032718;28;20761;-78
2022/07/06 08:45:22;;;;;;;0.20;0.10;;;;;25.80;102466.00;;;;5030882;28;20270;-78
2022/07/06 08:47:51;;;;;;;1.58;0.28;;;;;25.80;102458.00;;;;5033968;28;20193;-79
2022/07/06 08:50:20;;;;;;;1.05;0.38;;;;;25.90;102446.00;;;;5042635;28;20284;-82
2022/07/06 08:52:49;;;;;;;3.85;0.30;;;;;25.90;102454.00;;;;5033050;28;20327;-79
2022/07/06 08:55:17;;;;;;;0.73;0.17;;;;;26.00;102449.00;;;;5034247;28;20251;-79
2022/07/06 08:57:47;;;;;;;1.45;0.20;;;;;26.10;102453.00;;;;5036899;28;20283;-78
2022/07/06 09:00:16;;;;;;;0.20;0.08;;;;;26.10;102453.00;;;;5032042;28;20220;-79
2022/07/06 09:02:45;;;;;;;0.80;0.28;;;;;26.10;102451.00;;;;5030999;28;20197;-80
2022/07/06 09:05:15;;;;;;;2.42;0.30;;;;;26.10;102455.00;;;;5033624;28;20196;-79
2022/07/06 09:07:43;;;;;;;2.38;0.52;;;;;26.10;102449.00;;;;5042763;28;20246;-78
2022/07/06 09:10:10;;;;;;;0.50;0.22;;;;;26.10;102453.00;;;;5041787;28;20214;-79
2022/07/06 09:12:38;;;;;;;0.95;0.30;;;;;26.10;102446.00;;;;5041454;28;20197;-80
2022/07/06 09:15:06;;;;;;;1.70;0.15;;;;;26.10;102448.00;;;;5031065;28;20204;-79
2022/07/06 09:17:33;;;;;;;0.30;0.17;;;;;26.20;102448.00;;;;5030094;28;20192;-81
2022/07/06 09:20:02;;;;;;;1.02;0.20;;;;;26.20;102450.00;;;;5030234;28;20226;-79
2022/07/06 09:22:31;;;;;;;0.77;0.32;;;;;26.20;102446.00;;;;5030415;28;20208;-80
2022/07/06 09:25:10;;;;;;;1.40;0.10;;;;;26.20;102442.00;;;;5040477;28;20242;-80
2022/07/06 09:27:43;;;;;;;0.40;0.20;;;;;26.40;102457.00;;;;5049268;28;20207;-79
2022/07/06 09:30:11;;;;;;;0.20;0.20;;;;;26.50;102457.00;;;;5045466;28;20204;-79
2022/07/06 09:32:43;;;;;;;0.47;0.20;;;;;26.50;102456.00;;;;5029833;28;20197;-80
2022/07/06 09:35:22;;;;;;;0.73;0.30;;;;;26.60;102460.00;;;;5034610;28;20211;-79
2022/07/06 09:38:02;;;;;;;0.65;0.10;;;;;26.60;102461.00;;;;5029674;28;20204;-81
2022/07/06 09:40:31;;;;;;;0.43;0.20;;;;;26.80;102457.00;;;;5030029;28;20228;-80
2022/07/06 09:43:16;;;;;;;0.40;0.10;;;;;26.70;102455.00;;;;5039461;28;20205;-80
2022/07/06 09:45:45;;;;;;;1.17;0.20;;;;;26.90;102464.00;;;;5049209;28;20202;-79
2022/07/06 09:48:14;;;;;;;0.70;0.20;;;;;27.00;102465.00;;;;5037205;28;20200;-80
2022/07/06 09:50:46;;;;;;;1.17;0.20;;;;;27.00;102472.00;;;;5045971;28;20296;-79
2022/07/06 09:53:14;;;;;;;1.35;0.05;;;;;27.10;102469.00;;;;5048902;28;20249;-79
2022/07/06 09:55:45;;;;;;;1.65;0.15;;;;;27.00;102474.00;;;;5041420;28;20228;-80
2022/07/06 09:58:13;;;;;;;1.00;0.30;;;;;27.10;102473.00;;;;5028875;28;20263;-79
2022/07/06 10:00:41;;;;;;;0.28;0.10;;;;;27.10;102473.00;;;;5029606;28;20219;-80
2022/07/06 10:03:09;;;;;;;0.20;0.20;;;;;27.10;102481.00;;;;5042156;28;20200;-80
2022/07/06 10:05:38;;;;;;;0.32;0.17;;;;;27.10;102479.00;;;;5034078;28;20211;-79
2022/07/06 10:08:09;;;;;;;4.25;0.17;;;;;27.00;102471.00;;;;5029656;28;20199;-79
2022/07/06 10:10:38;;;;;;;0.82;0.20;;;;;27.00;102473.00;;;;5028742;28;20208;-79
2022/07/06 10:13:07;;;;;;;0.45;0.13;;;;;27.00;102479.00;;;;5042153;28;20204;-79
2022/07/06 10:15:36;;;;;;;0.70;0.32;;;;;26.90;102476.00;;;;5049436;28;20207;-79
2022/07/06 10:18:05;;;;;;;1.80;0.20;;;;;26.90;102478.00;;;;5048488;28;20211;-79
2022/07/06 10:20:34;;;;;;;0.20;0.10;;;;;26.90;102467.00;;;;5033258;28;20220;-79
2022/07/06 10:23:02;;;;;;;4.30;0.30;;;;;26.90;102468.00;;;;5037743;28;20201;-78
2022/07/06 10:25:32;;;;;;;0.40;0.20;;;;;27.00;102469.00;;;;5028655;28;20208;-79
2022/07/06 10:28:00;;;;;;;0.55;0.13;;;;;27.00;102466.00;;;;5029863;28;20215;-78
2022/07/06 10:30:29;;;;;;;0.13;0.10;;;;;27.10;102471.00;;;;5043121;28;20207;-78
2022/07/06 10:32:59;;;;;;;1.40;0.10;;;;;27.10;102464.00;;;;5048408;28;20203;-78
2022/07/06 10:35:26;;;;;;;1.95;1.13;;;;;27.10;102456.00;;;;5036458;28;20226;-78
2022/07/06 10:38:05;;;;;;;0.82;0.63;;;;;27.00;102455.00;;;;5034704;28;20199;-79
2022/07/06 10:43:31;;;;;;;0.80;0.30;;;;;27.10;102460.00;;;;5032560;28;20285;-78
2022/07/06 10:45:59;;;;;;;0.95;0.47;;;;;27.10;102458.00;;;;5027843;28;20584;-78
2022/07/06 10:48:34;;;;;;;0.17;0.05;;;;;27.10;102461.00;;;;5028621;28;20196;-78
2022/07/06 10:51:04;;;;;;;1.70;0.20;;;;;27.20;102460.00;;;;5028282;28;20271;-78
2022/07/06 10:53:34;;;;;;;0.95;0.10;;;;;27.20;102454.00;;;;5028964;28;20204;-78
2022/07/06 10:56:05;;;;;;;0.70;0.25;;;;;27.30;102456.00;;;;5028678;28;20242;-78
2022/07/06 10:58:50;;;;;;;3.28;0.30;;;;;27.30;102457.00;;;;5039788;28;20206;-79
2022/07/06 11:01:20;;;;;;;2.30;0.40;;;;;27.50;102449.00;;;;5048163;28;20317;-78
2022/07/06 11:03:49;;;;;;;1.33;0.30;;;;;27.60;102446.00;;;;5045162;28;20192;-79
2022/07/06 11:06:18;;;;;;;0.32;0.17;;;;;27.60;102460.00;;;;5048227;28;20199;-78
2022/07/06 11:08:53;;;;;;;1.00;0.20;;;;;27.70;102451.00;;;;5048271;28;20204;-79
2022/07/06 11:11:24;;;;;;;1.73;0.20;;;;;27.80;102454.00;;;;5048313;28;20198;-79
2022/07/06 11:13:54;;;;;;;0.30;0.20;;;;;27.90;102448.00;;;;5035349;28;20211;-80
2022/07/06 11:16:23;;;;;;;1.85;0.13;;;;;28.00;102445.00;;;;5046613;28;20196;-78
2022/07/06 11:19:00;;;;;;;2.92;0.32;;;;;28.00;102444.00;;;;5039822;28;20195;-79
2022/07/06 11:21:39;;;;;;;0.40;0.20;;;;;28.00;102440.00;;;;5047934;28;20223;-79
2022/07/06 11:24:08;;;;;;;1.02;0.30;;;;;28.10;102435.00;;;;5028457;28;20200;-79
2022/07/06 11:26:37;;;;;;;0.52;0.17;;;;;28.10;102437.00;;;;5032874;28;20204;-78
2022/07/06 11:29:06;;;;;;;2.20;0.25;;;;;28.10;102425.00;;;;5028773;28;20557;-79
2022/07/06 11:31:37;;;;;;;0.98;0.28;;;;;28.10;102425.00;;;;5030926;28;20230;-78
2022/07/06 11:34:05;;;;;;;0.30;0.10;;;;;28.10;102425.00;;;;5033740;28;20227;-79
2022/07/06 11:36:32;;;;;;;0.93;0.38;;;;;28.10;102424.00;;;;5033038;28;20208;-79
2022/07/06 11:39:00;;;;;;;0.30;0.10;;;;;28.10;102415.00;;;;5032970;28;20754;-78
2022/07/06 11:41:27;;;;;;;0.68;0.20;;;;;28.10;102416.00;;;;5029177;28;20220;-79
2022/07/06 11:43:56;;;;;;;1.55;0.20;;;;;28.10;102404.00;;;;5033400;28;20913;-77
2022/07/06 11:46:25;;;;;;;0.80;0.20;;;;;28.10;102403.00;;;;5033252;28;20225;-78
2022/07/06 11:48:55;;;;;;;1.88;0.20;;;;;28.10;102393.00;;;;5039744;28;20197;-77
2022/07/06 11:51:23;;;;;;;0.55;0.10;;;;;28.20;102393.00;;;;5047078;28;20194;-77
2022/07/06 11:53:51;;;;;;;0.50;0.20;;;;;28.20;102400.00;;;;5041345;28;20749;-77
2022/07/06 11:56:21;;;;;;;0.40;0.20;;;;;28.10;102394.00;;;;5028024;28;20584;-77
2022/07/06 11:58:50;;;;;;;2.35;0.40;;;;;28.00;102403.00;;;;5028491;28;20279;-76
2022/07/06 12:01:19;;;;;;;0.40;0.20;;;;;28.10;102399.00;;;;5027385;28;20239;-75
2022/07/06 12:03:47;;;;;;;5.63;0.38;;;;;28.00;102398.00;;;;5027476;28;20211;-76
2022/07/06 12:06:17;;;;;;;2.15;0.30;;;;;28.00;102406.00;;;;5027913;28;20196;-76
2022/07/06 12:08:46;;;;;;;0.63;0.20;;;;;28.00;102408.00;;;;5031412;28;20200;-77
2022/07/06 12:11:22;;;;;;;2.97;0.82;;;;;27.90;102401.00;;;;5032397;28;20219;-78
2022/07/06 12:13:50;;;;;;;0.43;0.30;;;;;28.00;102400.00;;;;5036502;28;21035;-77
2022/07/06 12:16:23;;;;;;;0.32;0.25;;;;;28.00;102401.00;;;;5032163;28;20378;-77
2022/07/06 12:18:51;;;;;;;1.35;0.20;;;;;28.10;102406.00;;;;5038439;28;20274;-78
2022/07/06 12:21:22;;;;;;;0.95;0.38;;;;;28.00;102404.00;;;;5025961;28;20231;-77